createdAt,value
2018-03-02T00:01:13.656Z,30.80
2018-03-02T00:03:43.351Z,30.10
2018-03-02T00:06:12.969Z,21.93
2018-03-02T00:08:43.312Z,24.07
2018-03-02T00:11:13.463Z,25.57
2018-03-02T00:13:43.132Z,26.90
2018-03-02T00:16:12.778Z,21.07
2018-03-02T00:18:46.558Z,27.53
2018-03-02T00:21:17.474Z,20.30
2018-03-02T00:23:47.153Z,26.27
2018-03-02T00:26:16.776Z,23.77
2018-03-02T00:28:46.502Z,24.60
2018-03-02T00:31:16.190Z,26.83
2018-03-02T00:33:46.172Z,23.87
2018-03-02T00:36:16.730Z,26.90
2018-03-02T00:38:47.330Z,24.87
2018-03-02T00:41:17.115Z,27.90
2018-03-02T00:43:46.699Z,23.47
2018-03-02T00:46:16.303Z,22.57
2018-03-02T00:48:46.453Z,25.63
2018-03-02T00:51:16.221Z,24.87
2018-03-02T00:53:46.039Z,23.90
2018-03-02T00:56:15.727Z,34.40
2018-03-02T00:58:45.656Z,19.60
2018-03-02T01:01:15.280Z,14.30
2018-03-02T01:03:53.349Z,11.43
2018-03-02T01:06:23.265Z,6.90
2018-03-02T01:08:52.867Z,11.80
2018-03-02T01:11:22.518Z,10.97
2018-03-02T01:13:52.213Z,10.60
2018-03-02T01:16:35.311Z,11.63
2018-03-02T01:19:04.889Z,8.97
2018-03-02T01:21:34.511Z,6.70
2018-03-02T01:24:04.137Z,9.97
2018-03-02T01:26:33.755Z,8.10
2018-03-02T01:29:04.305Z,9.60
2018-03-02T01:31:34.037Z,7.53
2018-03-02T01:34:04.685Z,5.90
2018-03-02T01:36:34.612Z,8.00
2018-03-02T01:39:04.224Z,4.53
2018-03-02T01:41:34.038Z,3.50
2018-03-02T01:44:04.060Z,2.80
2018-03-02T01:46:33.868Z,3.03
2018-03-02T01:49:03.699Z,1.70
2018-03-02T01:51:39.189Z,1.00
2018-03-02T01:54:08.776Z,1.00
2018-03-02T01:56:38.565Z,1.40
2018-03-02T01:59:08.184Z,2.10
2018-03-02T02:01:38.029Z,1.77
2018-03-02T02:04:07.651Z,2.03
2018-03-02T02:06:38.772Z,1.00
2018-03-02T02:09:09.013Z,6.40
2018-03-02T02:11:38.920Z,3.47
2018-03-02T02:14:08.518Z,4.37
2018-03-02T02:16:38.345Z,1.10
2018-03-02T02:19:12.511Z,1.10
2018-03-02T02:21:42.106Z,3.03
2018-03-02T02:24:11.749Z,2.77
2018-03-02T02:26:41.397Z,1.50
2018-03-02T02:29:10.965Z,2.60
2018-03-02T02:31:47.021Z,2.10
2018-03-02T02:34:17.316Z,0.87
2018-03-02T02:36:46.927Z,1.10
2018-03-02T02:39:18.360Z,2.40
2018-03-02T02:41:55.546Z,1.93
2018-03-02T02:44:25.290Z,0.90
2018-03-02T02:46:54.917Z,10.83
2018-03-02T02:49:24.609Z,4.03
2018-03-02T02:51:54.231Z,2.70
2018-03-02T02:54:23.987Z,1.10
2018-03-02T02:56:53.589Z,1.17
2018-03-02T02:59:23.119Z,3.67
2018-03-02T03:01:53.392Z,1.47
2018-03-02T03:04:22.991Z,2.60
2018-03-02T03:06:53.109Z,0.90
2018-03-02T03:09:22.676Z,1.97
2018-03-02T03:11:52.529Z,1.93
2018-03-02T03:14:22.377Z,5.17
2018-03-02T03:16:59.496Z,11.27
2018-03-02T03:19:29.320Z,1.97
2018-03-02T03:21:59.400Z,0.80
2018-03-02T03:24:35.871Z,8.40
2018-03-02T03:27:05.460Z,2.90
2018-03-02T03:29:35.035Z,1.87
2018-03-02T03:32:04.685Z,3.67
2018-03-02T03:34:34.337Z,1.40
2018-03-02T03:37:03.919Z,1.00
2018-03-02T03:39:39.844Z,0.90
2018-03-02T03:42:09.465Z,3.20
2018-03-02T03:44:39.466Z,0.90
2018-03-02T03:47:09.081Z,2.17
2018-03-02T03:49:38.719Z,0.90
2018-03-02T03:52:08.285Z,1.00
2018-03-02T03:54:37.900Z,0.80
2018-03-02T03:57:07.451Z,3.00
2018-03-02T03:59:37.014Z,6.40
2018-03-02T04:02:06.683Z,0.80
2018-03-02T04:04:36.217Z,2.20
2018-03-02T04:07:05.774Z,1.63
2018-03-02T04:09:35.292Z,1.50
2018-03-02T04:12:04.951Z,1.33
2018-03-02T04:14:34.546Z,2.50
2018-03-02T04:17:04.108Z,2.10
2018-03-02T04:19:34.013Z,1.83
2018-03-02T04:22:03.617Z,3.70
2018-03-02T04:24:37.695Z,2.60
2018-03-02T04:27:07.335Z,0.90
2018-03-02T04:29:37.133Z,1.13
2018-03-02T04:32:06.719Z,1.00
2018-03-02T04:34:36.330Z,2.60
2018-03-02T04:37:05.904Z,0.90
2018-03-02T04:39:35.539Z,2.53
2018-03-02T04:42:05.094Z,1.13
2018-03-02T04:44:41.423Z,1.77
2018-03-02T04:47:11.277Z,1.67
2018-03-02T04:49:50.563Z,1.27
2018-03-02T04:52:21.655Z,1.00
2018-03-02T04:54:51.234Z,2.70
2018-03-02T04:57:21.067Z,1.20
2018-03-02T04:59:50.691Z,1.07
2018-03-02T05:02:20.203Z,1.10
2018-03-02T05:04:50.494Z,4.83
2018-03-02T05:07:20.083Z,1.30
2018-03-02T05:09:49.636Z,2.93
2018-03-02T05:12:19.959Z,4.20
2018-03-02T05:14:49.681Z,1.53
2018-03-02T05:17:19.238Z,3.67
2018-03-02T05:19:56.219Z,6.30
2018-03-02T05:22:33.530Z,9.10
2018-03-02T05:25:03.125Z,3.53
2018-03-02T05:27:32.700Z,5.87
2018-03-02T05:30:15.934Z,11.93
2018-03-02T05:32:45.483Z,3.43
2018-03-02T05:35:16.805Z,5.57
2018-03-02T05:37:46.382Z,1.53
2018-03-02T05:40:15.938Z,1.97
2018-03-02T05:42:59.138Z,1.13
2018-03-02T05:45:28.776Z,3.17
2018-03-02T05:48:05.095Z,2.40
2018-03-02T05:50:34.650Z,2.37
2018-03-02T05:53:11.401Z,3.17
2018-03-02T05:55:41.299Z,1.57
2018-03-02T05:58:10.855Z,1.93
2018-03-02T06:00:40.454Z,1.10
2018-03-02T06:03:10.146Z,1.00
2018-03-02T06:05:39.713Z,3.43
2018-03-02T06:08:09.242Z,5.73
2018-03-02T06:10:38.778Z,1.67
2018-03-02T06:13:09.146Z,3.53
2018-03-02T06:15:38.686Z,5.23
2018-03-02T06:18:08.304Z,4.13
2018-03-02T06:20:37.838Z,8.33
2018-03-02T06:23:07.373Z,3.57
2018-03-02T06:25:36.948Z,2.00
2018-03-02T06:28:06.459Z,1.97
2018-03-02T06:30:39.722Z,2.90
2018-03-02T06:33:09.248Z,1.40
2018-03-02T06:35:44.894Z,5.43
2018-03-02T06:38:22.112Z,3.00
2018-03-02T06:40:51.740Z,1.73
2018-03-02T06:43:21.277Z,6.77
2018-03-02T06:45:50.833Z,1.97
2018-03-02T06:48:20.653Z,1.00
2018-03-02T06:50:50.171Z,3.43
2018-03-02T06:53:19.692Z,3.33
2018-03-02T06:55:49.599Z,1.80
2018-03-02T06:58:19.147Z,3.20
2018-03-02T07:00:49.091Z,2.90
2018-03-02T07:03:25.594Z,4.10
2018-03-02T07:05:55.106Z,3.60
2018-03-02T07:08:24.651Z,2.50
2018-03-02T07:10:54.660Z,4.37
2018-03-02T07:13:24.410Z,1.47
2018-03-02T07:15:53.974Z,7.60
2018-03-02T07:18:23.508Z,1.33
2018-03-02T07:20:53.053Z,7.40
2018-03-02T07:23:28.980Z,6.70
2018-03-02T07:25:58.512Z,3.20
2018-03-02T07:28:28.103Z,9.60
2018-03-02T07:30:57.642Z,6.00
2018-03-02T07:33:27.434Z,1.87
2018-03-02T07:36:09.674Z,2.77
2018-03-02T07:38:39.201Z,1.57
2018-03-02T07:41:16.483Z,3.80
2018-03-02T07:43:46.060Z,3.90
2018-03-02T07:46:15.612Z,5.50
2018-03-02T07:48:45.508Z,3.97
2018-03-02T07:51:15.053Z,1.40
2018-03-02T07:53:44.846Z,13.07
2018-03-02T07:56:14.426Z,4.40
2018-03-02T07:58:44.038Z,3.73
2018-03-02T08:01:13.614Z,2.67
2018-03-02T08:03:43.163Z,3.73
2018-03-02T08:06:21.277Z,2.70
2018-03-02T08:08:50.990Z,1.33
2018-03-02T08:11:20.596Z,2.70
2018-03-02T08:13:50.226Z,6.20
2018-03-02T08:16:25.889Z,5.40
2018-03-02T08:18:55.490Z,2.50
2018-03-02T08:21:25.055Z,4.70
2018-03-02T08:23:54.747Z,5.17
2018-03-02T08:26:24.451Z,4.60
2018-03-02T08:28:54.007Z,3.83
2018-03-02T08:31:23.512Z,3.97
2018-03-02T08:33:56.404Z,4.90
2018-03-02T08:36:25.973Z,1.93
2018-03-02T08:38:55.579Z,1.90
2018-03-02T08:41:25.121Z,3.63
2018-03-02T08:43:54.628Z,1.00
2018-03-02T08:46:24.386Z,4.80
2018-03-02T08:48:59.913Z,5.10
2018-03-02T08:51:29.450Z,5.90
2018-03-02T08:54:05.429Z,9.10
2018-03-02T08:56:34.939Z,7.03
2018-03-02T08:59:04.508Z,11.70
2018-03-02T09:01:34.052Z,3.80
2018-03-02T09:04:15.866Z,8.07
2018-03-02T09:06:45.449Z,22.53
2018-03-02T09:09:15.243Z,4.50
2018-03-02T09:11:44.830Z,19.07
2018-03-02T09:14:14.540Z,5.53
2018-03-02T09:16:44.088Z,2.50
2018-03-02T09:19:13.980Z,6.20
2018-03-02T09:21:43.564Z,2.17
2018-03-02T09:24:13.176Z,6.33
2018-03-02T09:26:42.807Z,1.23
2018-03-02T09:29:12.350Z,12.53
2018-03-02T09:31:41.902Z,8.40
2018-03-02T09:34:11.478Z,2.60
2018-03-02T09:36:40.979Z,9.80
2018-03-02T09:39:10.520Z,3.90
2018-03-02T09:41:40.105Z,5.73
2018-03-02T09:44:15.726Z,5.87
2018-03-02T09:46:51.432Z,6.73
2018-03-02T09:49:21.247Z,12.13
2018-03-02T09:51:50.791Z,2.53
2018-03-02T09:54:20.398Z,3.37
2018-03-02T09:56:49.916Z,7.23
2018-03-02T09:59:19.451Z,3.17
2018-03-02T10:01:48.976Z,1.30
2018-03-02T10:04:18.495Z,4.60
2018-03-02T10:06:48.010Z,5.13
2018-03-02T10:09:17.568Z,1.93
2018-03-02T10:11:47.120Z,4.50
2018-03-02T10:14:16.687Z,2.07
2018-03-02T10:16:46.241Z,1.67
2018-03-02T10:19:15.762Z,2.73
2018-03-02T10:21:45.313Z,4.20
2018-03-02T10:24:15.063Z,5.70
2018-03-02T10:26:44.608Z,2.40
2018-03-02T10:29:14.122Z,5.23
2018-03-02T10:31:58.647Z,7.40
2018-03-02T10:34:28.315Z,26.70
2018-03-02T10:36:57.885Z,13.17
2018-03-02T10:39:27.382Z,58.50
2018-03-02T10:41:56.998Z,18.90
2018-03-02T10:44:27.807Z,10.50
2018-03-02T10:46:57.536Z,8.47
2018-03-02T10:49:27.100Z,10.70
2018-03-02T10:51:56.762Z,19.73
2018-03-02T10:54:26.293Z,6.50
2018-03-02T10:57:06.590Z,10.10
2018-03-02T10:59:36.186Z,17.57
2018-03-02T11:02:17.526Z,9.23
2018-03-02T11:04:47.216Z,1.53
2018-03-02T11:07:16.737Z,22.73
2018-03-02T11:09:46.339Z,2.13
2018-03-02T11:12:16.161Z,18.03
2018-03-02T11:14:45.711Z,2.37
2018-03-02T11:17:15.237Z,6.13
2018-03-02T11:19:44.767Z,10.27
2018-03-02T11:22:14.287Z,4.00
2018-03-02T11:24:43.826Z,4.87
2018-03-02T11:27:32.749Z,6.93
2018-03-02T11:30:02.296Z,4.87
2018-03-02T11:32:31.898Z,8.90
2018-03-02T11:35:01.415Z,14.03
2018-03-02T11:37:30.922Z,7.17
2018-03-02T11:40:00.467Z,15.63
2018-03-02T11:42:30.308Z,13.27
2018-03-02T11:44:59.888Z,21.70
2018-03-02T11:47:29.523Z,6.77
2018-03-02T11:50:05.207Z,4.50
2018-03-02T11:52:34.831Z,6.27
2018-03-02T11:55:04.653Z,7.80
2018-03-02T11:57:34.676Z,8.43
2018-03-02T12:00:04.683Z,5.00
2018-03-02T12:02:34.218Z,8.70
2018-03-02T12:05:03.758Z,7.97
2018-03-02T12:07:33.526Z,9.70
2018-03-02T12:10:03.045Z,9.50
2018-03-02T12:12:45.576Z,14.67
2018-03-02T12:15:15.143Z,19.13
2018-03-02T12:17:44.678Z,8.60
2018-03-02T12:20:14.226Z,8.30
2018-03-02T12:22:44.374Z,5.07
2018-03-02T12:25:13.975Z,7.70
2018-03-02T12:27:43.723Z,11.90
2018-03-02T12:30:13.255Z,6.50
2018-03-02T12:32:43.058Z,4.53
2018-03-02T12:35:12.618Z,7.07
2018-03-02T12:37:42.667Z,10.83
2018-03-02T12:40:25.886Z,4.63
2018-03-02T12:42:55.391Z,4.47
2018-03-02T12:45:24.979Z,4.60
2018-03-02T12:48:02.827Z,4.90
2018-03-02T12:50:46.219Z,3.90
2018-03-02T12:53:15.790Z,7.37
2018-03-02T12:55:45.307Z,4.50
2018-03-02T12:58:14.792Z,3.93
2018-03-02T13:00:44.561Z,6.77
2018-03-02T13:03:14.100Z,6.80
2018-03-02T13:05:43.776Z,3.40
2018-03-02T13:08:13.320Z,7.80
2018-03-02T13:10:43.061Z,7.90
2018-03-02T13:13:13.077Z,5.03
2018-03-02T13:15:42.701Z,4.60
2018-03-02T13:18:27.751Z,10.03
2018-03-02T13:20:57.274Z,14.60
2018-03-02T13:23:30.721Z,2.80
2018-03-02T13:26:00.250Z,3.97
2018-03-02T13:28:43.059Z,4.63
2018-03-02T13:31:12.751Z,3.97
2018-03-02T13:33:48.219Z,3.77
2018-03-02T13:36:17.750Z,3.83
2018-03-02T13:38:47.286Z,2.70
2018-03-02T13:41:22.798Z,4.10
2018-03-02T13:43:52.572Z,5.40
2018-03-02T13:46:28.717Z,13.33
2018-03-02T13:49:04.090Z,2.97
2018-03-02T13:51:34.602Z,5.30
2018-03-02T13:54:04.178Z,5.60
2018-03-02T13:56:45.727Z,4.20
2018-03-02T13:59:15.281Z,2.97
2018-03-02T14:01:53.262Z,4.87
2018-03-02T14:04:28.562Z,5.63
2018-03-02T14:06:58.438Z,1.93
2018-03-02T14:09:27.979Z,2.73
2018-03-02T14:11:57.507Z,4.07
2018-03-02T14:14:27.028Z,18.63
2018-03-02T14:16:56.563Z,3.73
2018-03-02T14:19:26.261Z,1.73
2018-03-02T14:21:55.899Z,4.80
2018-03-02T14:24:25.463Z,1.30
2018-03-02T14:27:07.980Z,5.23
2018-03-02T14:29:37.554Z,5.50
2018-03-02T14:32:07.093Z,4.50
2018-03-02T14:34:36.683Z,4.80
2018-03-02T14:37:06.219Z,6.80
2018-03-02T14:39:42.001Z,3.40
2018-03-02T14:42:11.588Z,4.20
2018-03-02T14:44:42.631Z,4.57
2018-03-02T14:47:12.164Z,4.83
2018-03-02T14:49:41.719Z,5.10
2018-03-02T14:52:17.939Z,9.20
2018-03-02T14:54:47.446Z,3.43
2018-03-02T14:57:26.378Z,5.53
2018-03-02T14:59:55.977Z,3.20
2018-03-02T15:02:25.531Z,3.80
2018-03-02T15:04:56.498Z,4.33
2018-03-02T15:07:26.047Z,3.13
2018-03-02T15:10:01.665Z,4.40
2018-03-02T15:12:31.226Z,6.30
2018-03-02T15:15:08.778Z,3.23
2018-03-02T15:17:38.527Z,3.13
2018-03-02T15:20:08.034Z,5.27
2018-03-02T15:22:37.586Z,3.57
2018-03-02T15:25:07.316Z,6.43
2018-03-02T15:27:36.855Z,3.70
2018-03-02T15:30:06.411Z,5.93
2018-03-02T15:32:42.951Z,6.40
2018-03-02T15:35:12.731Z,7.60
2018-03-02T15:37:42.281Z,12.83
2018-03-02T15:40:11.761Z,3.30
2018-03-02T15:42:41.294Z,8.93
2018-03-02T15:45:10.854Z,8.90
2018-03-02T15:47:48.350Z,11.37
2018-03-02T15:50:26.427Z,13.10
2018-03-02T15:52:55.969Z,9.17
2018-03-02T15:55:25.543Z,5.80
2018-03-02T15:57:55.075Z,13.23
2018-03-02T16:00:24.643Z,8.80
2018-03-02T16:02:54.227Z,7.23
2018-03-02T16:05:23.734Z,2.77
2018-03-02T16:07:53.276Z,8.57
2018-03-02T16:10:22.850Z,5.33
2018-03-02T16:12:52.380Z,5.03
2018-03-02T16:15:21.896Z,7.07
2018-03-02T16:17:53.172Z,11.67
2018-03-02T16:20:22.756Z,9.20
2018-03-02T16:22:52.336Z,6.90
2018-03-02T16:25:21.905Z,3.70
2018-03-02T16:27:51.693Z,4.97
2018-03-02T16:30:21.666Z,10.03
2018-03-02T16:32:51.440Z,6.03
2018-03-02T16:35:21.625Z,3.93
2018-03-02T16:37:52.251Z,5.63
2018-03-02T16:40:21.798Z,5.73
2018-03-02T16:42:52.090Z,5.40
2018-03-02T16:45:21.622Z,3.70
2018-03-02T16:47:51.894Z,9.83
2018-03-02T16:50:22.252Z,2.60
2018-03-02T16:52:51.822Z,4.03
2018-03-02T16:55:21.407Z,5.00
2018-03-02T16:57:51.197Z,3.40
2018-03-02T17:00:20.996Z,6.37
2018-03-02T17:02:50.519Z,11.03
2018-03-02T17:05:23.671Z,7.50
2018-03-02T17:07:53.228Z,11.83
2018-03-02T17:10:28.788Z,3.20
2018-03-02T17:12:58.364Z,5.70
2018-03-02T17:15:40.540Z,7.67
2018-03-02T17:18:10.872Z,7.33
2018-03-02T17:20:40.623Z,6.23
2018-03-02T17:23:10.516Z,3.07
2018-03-02T17:25:40.308Z,10.57
2018-03-02T17:28:09.917Z,3.37
2018-03-02T17:30:39.778Z,3.73
2018-03-02T17:33:09.552Z,6.07
2018-03-02T17:35:39.174Z,3.83
2018-03-02T17:38:09.025Z,16.77
2018-03-02T17:40:38.563Z,9.90
2018-03-02T17:43:08.146Z,2.03
2018-03-02T17:45:50.182Z,4.20
2018-03-02T17:48:19.725Z,3.57
2018-03-02T17:50:49.294Z,4.47
2018-03-02T17:53:30.140Z,6.53
2018-03-02T17:56:00.587Z,13.13
2018-03-02T17:58:36.187Z,7.20
2018-03-02T18:01:05.710Z,13.80
2018-03-02T18:03:35.910Z,8.00
2018-03-02T18:06:05.803Z,6.37
2018-03-02T18:08:46.239Z,6.40
2018-03-02T18:11:16.871Z,8.70
2018-03-02T18:13:46.475Z,13.73
2018-03-02T18:16:16.439Z,7.43
2018-03-02T18:18:46.496Z,6.23
2018-03-02T18:21:18.332Z,5.97
2018-03-02T18:23:48.034Z,9.23
2018-03-02T18:26:17.622Z,3.93
2018-03-02T18:28:48.030Z,2.50
2018-03-02T18:31:17.730Z,2.20
2018-03-02T18:33:47.544Z,3.67
2018-03-02T18:36:17.412Z,5.20
2018-03-02T18:38:53.042Z,9.70
2018-03-02T18:41:23.361Z,4.07
2018-03-02T18:43:53.459Z,6.33
2018-03-02T18:46:23.016Z,9.60
2018-03-02T18:48:53.664Z,2.87
2018-03-02T18:51:23.238Z,5.70
2018-03-02T18:53:52.799Z,3.73
2018-03-02T18:56:22.327Z,3.40
2018-03-02T18:58:51.847Z,5.00
2018-03-02T19:01:21.607Z,4.10
2018-03-02T19:03:51.592Z,2.20
2018-03-02T19:06:23.371Z,5.10
2018-03-02T19:08:52.948Z,4.37
2018-03-02T19:11:22.577Z,7.17
2018-03-02T19:14:05.723Z,7.10
2018-03-02T19:16:42.522Z,6.80
2018-03-02T19:19:12.110Z,8.77
2018-03-02T19:21:50.448Z,3.73
2018-03-02T19:24:20.115Z,3.83
2018-03-02T19:26:49.798Z,6.27
2018-03-02T19:29:19.569Z,4.23
2018-03-02T19:31:50.601Z,7.30
2018-03-02T19:34:20.358Z,2.87
2018-03-02T19:36:49.932Z,3.77
2018-03-02T19:39:19.570Z,2.90
2018-03-02T19:41:53.131Z,5.93
2018-03-02T19:44:22.861Z,4.13
2018-03-02T19:47:03.257Z,3.10
2018-03-02T19:49:32.916Z,2.77
2018-03-02T19:52:03.034Z,6.60
2018-03-02T19:54:32.579Z,4.23
2018-03-02T19:57:02.199Z,5.53
2018-03-02T20:53:32.207Z,15.40
2018-03-02T20:56:01.758Z,19.30
2018-03-02T20:58:31.371Z,16.93
2018-03-02T21:01:00.956Z,19.00
2018-03-02T21:03:30.558Z,5.00
2018-03-02T21:06:00.067Z,16.40
2018-03-02T21:08:35.989Z,3.73
2018-03-02T21:11:11.576Z,6.40
2018-03-02T21:13:41.322Z,6.70
2018-03-02T21:16:11.282Z,8.50
2018-03-02T21:18:41.608Z,12.63
2018-03-02T21:21:26.061Z,19.67
2018-03-02T21:24:12.022Z,11.10
2018-03-02T21:26:41.815Z,13.57
2018-03-02T21:29:11.343Z,17.40
2018-03-02T21:31:41.124Z,12.30
2018-03-02T21:34:24.408Z,9.00
2018-03-02T21:36:54.085Z,9.27
2018-03-02T21:39:23.676Z,8.30
2018-03-02T21:41:53.317Z,26.23
2018-03-02T21:44:23.016Z,8.30
2018-03-02T21:46:55.775Z,12.43
2018-03-02T21:49:25.559Z,8.60
2018-03-02T21:51:55.183Z,9.70
2018-03-02T21:54:24.793Z,6.17
2018-03-02T21:56:54.768Z,3.43
2018-03-02T21:59:24.327Z,4.97
2018-03-02T22:01:53.943Z,4.60
2018-03-02T22:04:34.302Z,4.53
2018-03-02T22:07:03.858Z,3.50
2018-03-02T22:09:33.601Z,3.37
2018-03-02T22:12:03.695Z,1.17
2018-03-02T22:14:33.260Z,1.53
2018-03-02T22:17:12.132Z,2.03
2018-03-02T22:19:41.659Z,1.50
2018-03-02T22:22:11.194Z,1.30
2018-03-02T22:24:40.827Z,1.60
2018-03-02T22:27:30.522Z,3.23
2018-03-02T22:30:15.692Z,2.87
2018-03-02T22:33:01.659Z,3.00
2018-03-02T22:35:55.591Z,13.00
2018-03-02T22:38:25.564Z,3.70
2018-03-02T22:41:17.442Z,3.83
2018-03-02T22:43:51.184Z,7.27
2018-03-02T22:46:20.712Z,3.83
2018-03-02T22:48:50.265Z,2.30
2018-03-02T22:51:19.927Z,1.40
2018-03-02T22:53:49.587Z,2.90
2018-03-02T22:56:19.353Z,2.30
2018-03-02T22:58:48.932Z,2.17
2018-03-02T23:01:20.278Z,2.20
2018-03-02T23:03:49.822Z,5.87
2018-03-02T23:06:27.476Z,5.60
2018-03-02T23:08:56.998Z,27.70
2018-03-02T23:11:26.536Z,26.00
2018-03-02T23:13:56.103Z,19.90
2018-03-02T23:16:26.449Z,20.83
2018-03-02T23:18:55.958Z,13.17
2018-03-02T23:21:25.493Z,30.43
2018-03-02T23:23:55.033Z,47.17
2018-03-02T23:26:25.419Z,21.77
2018-03-02T23:28:54.934Z,24.03
2018-03-02T23:31:24.465Z,19.23
2018-03-02T23:33:54.052Z,23.70
2018-03-02T23:36:23.603Z,13.93
2018-03-02T23:38:53.132Z,23.40
2018-03-02T23:41:24.533Z,14.87
2018-03-02T23:43:54.381Z,16.57
2018-03-02T23:46:23.899Z,35.07
2018-03-02T23:48:53.720Z,19.13
2018-03-02T23:51:24.184Z,23.20
2018-03-02T23:53:53.729Z,30.30
2018-03-02T23:56:23.323Z,36.20
2018-03-02T23:58:59.339Z,28.83
